createdAt,value
2022-12-11T00:01:19.311Z,13.05
2022-12-11T00:03:48.117Z,13.68
2022-12-11T00:06:19.060Z,13.63
2022-12-11T00:08:47.661Z,14.57
2022-12-11T00:11:18.222Z,15.82
2022-12-11T00:13:46.907Z,14.55
2022-12-11T00:16:15.787Z,15.15
2022-12-11T00:18:44.488Z,14.13
2022-12-11T00:21:15.450Z,13.80
2022-12-11T00:23:44.267Z,15.88
2022-12-11T00:26:16.887Z,12.85
2022-12-11T00:28:46.284Z,13.77
2022-12-11T00:31:18.941Z,14.13
2022-12-11T00:33:49.020Z,11.60
2022-12-11T00:36:20.166Z,12.55
2022-12-11T00:38:48.945Z,14.43
2022-12-11T00:41:19.751Z,15.80
2022-12-11T00:43:48.634Z,13.15
2022-12-11T00:46:17.126Z,15.43
2022-12-11T00:48:46.142Z,19.48
2022-12-11T00:51:14.703Z,20.52
2022-12-11T00:53:43.290Z,23.65
2022-12-11T00:56:14.506Z,18.60
2022-12-11T00:58:44.431Z,16.50
2022-12-11T01:01:15.421Z,15.90
2022-12-11T01:03:43.801Z,12.60
2022-12-11T01:06:16.744Z,13.20
2022-12-11T01:08:45.928Z,13.82
2022-12-11T01:11:16.667Z,14.15
2022-12-11T01:13:46.335Z,13.82
2022-12-11T01:16:16.766Z,13.57
2022-12-11T01:18:45.639Z,18.52
2022-12-11T01:21:15.375Z,24.63
2022-12-11T01:23:43.919Z,17.58
2022-12-11T01:26:15.001Z,15.00
2022-12-11T01:28:45.779Z,17.50
2022-12-11T01:31:17.327Z,14.63
2022-12-11T01:33:45.927Z,13.75
2022-12-11T01:36:17.931Z,15.73
2022-12-11T01:38:46.874Z,16.92
2022-12-11T01:41:15.577Z,14.50
2022-12-11T01:44:08.376Z,14.13
2022-12-11T01:46:38.618Z,13.27
2022-12-11T01:49:11.969Z,13.02
2022-12-11T01:51:47.103Z,11.37
2022-12-11T01:54:18.414Z,14.07
2022-12-11T01:56:49.428Z,13.10
2022-12-11T01:59:25.410Z,13.07
2022-12-11T02:02:00.496Z,14.80
2022-12-11T02:04:29.918Z,14.35
2022-12-11T02:06:58.620Z,13.55
2022-12-11T02:09:30.195Z,13.13
2022-12-11T02:12:11.650Z,12.60
2022-12-11T02:14:49.636Z,12.68
2022-12-11T02:17:22.838Z,14.07
2022-12-11T02:20:04.412Z,13.20
2022-12-11T02:22:55.506Z,15.32
2022-12-11T02:25:32.677Z,10.82
2022-12-11T02:28:20.424Z,11.55
2022-12-11T02:30:52.792Z,11.77
2022-12-11T02:33:28.246Z,12.60
2022-12-11T02:35:57.270Z,12.90
2022-12-11T02:38:32.141Z,12.60
2022-12-11T02:41:03.755Z,14.75
2022-12-11T02:43:35.495Z,14.23
2022-12-11T02:46:06.975Z,12.75
2022-12-11T02:48:37.775Z,11.75
2022-12-11T02:51:09.107Z,14.18
2022-12-11T02:53:40.983Z,11.98
2022-12-11T02:56:14.887Z,13.75
2022-12-11T02:58:56.808Z,18.92
2022-12-11T03:01:27.853Z,15.25
2022-12-11T03:03:56.768Z,15.85
2022-12-11T03:06:33.543Z,13.10
2022-12-11T03:09:02.126Z,13.13
2022-12-11T03:11:30.747Z,14.13
2022-12-11T03:14:03.027Z,16.08
2022-12-11T03:16:36.841Z,11.60
2022-12-11T03:19:17.377Z,15.27
2022-12-11T03:21:52.520Z,13.32
2022-12-11T03:24:27.571Z,17.45
2022-12-11T03:27:01.149Z,16.20
2022-12-11T03:29:37.585Z,16.45
2022-12-11T03:32:12.259Z,14.23
2022-12-11T03:34:46.370Z,13.93
2022-12-11T03:37:15.967Z,15.57
2022-12-11T03:39:50.050Z,13.43
2022-12-11T03:42:22.391Z,15.30
2022-12-11T03:44:55.741Z,14.05
2022-12-11T03:47:28.059Z,18.97
2022-12-11T03:49:58.136Z,16.55
2022-12-11T03:52:28.588Z,18.13
2022-12-11T03:55:03.738Z,17.60
2022-12-11T03:57:38.016Z,17.23
2022-12-11T04:00:11.143Z,18.90
2022-12-11T04:02:42.683Z,15.38
2022-12-11T04:05:12.894Z,18.30
2022-12-11T04:07:41.312Z,19.00
2022-12-11T04:10:09.849Z,19.65
2022-12-11T04:12:38.429Z,18.17
2022-12-11T04:15:08.063Z,15.30
2022-12-11T04:18:00.832Z,14.77
2022-12-11T04:20:47.512Z,16.42
2022-12-11T04:23:37.552Z,15.48
2022-12-11T04:26:07.253Z,15.77
2022-12-11T04:28:36.262Z,15.48
2022-12-11T04:31:06.547Z,14.93
2022-12-11T04:33:35.046Z,17.05
2022-12-11T04:36:03.656Z,17.45
2022-12-11T04:38:32.190Z,16.73
2022-12-11T04:41:01.524Z,16.02
2022-12-11T04:43:30.079Z,15.00
2022-12-11T04:46:07.676Z,18.05
2022-12-11T04:48:36.006Z,15.90
2022-12-11T04:51:04.909Z,17.67
2022-12-11T04:53:33.548Z,16.90
2022-12-11T04:56:02.652Z,16.65
2022-12-11T04:58:31.331Z,17.05
2022-12-11T05:00:59.968Z,17.20
2022-12-11T05:03:30.056Z,16.33
2022-12-11T05:05:58.570Z,14.07
2022-12-11T05:08:27.055Z,14.00
2022-12-11T05:10:59.083Z,15.73
2022-12-11T05:13:29.828Z,15.32
2022-12-11T05:15:59.098Z,15.13
2022-12-11T05:18:29.053Z,15.98
2022-12-11T05:20:58.064Z,14.25
2022-12-11T05:23:27.354Z,15.88
2022-12-11T05:25:57.130Z,18.35
2022-12-11T05:28:27.493Z,16.50
2022-12-11T05:30:59.605Z,15.88
2022-12-11T05:33:29.924Z,16.35
2022-12-11T05:35:58.573Z,18.60
2022-12-11T05:38:27.339Z,16.95
2022-12-11T05:40:59.788Z,16.20
2022-12-11T05:43:29.832Z,15.77
2022-12-11T05:46:07.481Z,15.88
2022-12-11T05:48:38.071Z,15.95
2022-12-11T05:51:08.673Z,15.82
2022-12-11T05:53:37.988Z,14.00
2022-12-11T05:56:09.007Z,15.60
2022-12-11T05:58:37.412Z,16.65
2022-12-11T06:01:09.724Z,17.10
2022-12-11T06:03:39.626Z,18.85
2022-12-11T06:06:09.288Z,15.93
2022-12-11T06:08:38.116Z,15.13
2022-12-11T06:11:07.150Z,14.02
2022-12-11T06:13:36.112Z,14.95
2022-12-11T06:16:07.315Z,12.68
2022-12-11T06:18:40.024Z,14.65
2022-12-11T06:21:16.607Z,14.38
2022-12-11T06:23:46.846Z,13.52
2022-12-11T06:26:16.873Z,19.60
2022-12-11T06:28:46.105Z,18.02
2022-12-11T06:31:15.700Z,15.35
2022-12-11T06:33:45.453Z,16.88
2022-12-11T06:36:17.298Z,13.18
2022-12-11T06:38:46.009Z,15.23
2022-12-11T06:41:15.524Z,14.65
2022-12-11T06:43:44.517Z,16.70
2022-12-11T06:46:15.615Z,17.40
2022-12-11T06:48:46.512Z,15.85
2022-12-11T06:51:18.208Z,17.65
2022-12-11T06:53:52.787Z,21.10
2022-12-11T06:56:21.833Z,18.02
2022-12-11T06:58:51.806Z,17.25
2022-12-11T07:01:22.055Z,24.00
2022-12-11T07:03:54.581Z,17.10
2022-12-11T07:06:24.397Z,18.95
2022-12-11T07:08:53.289Z,18.90
2022-12-11T07:11:22.586Z,22.65
2022-12-11T07:13:51.382Z,20.02
2022-12-11T07:16:20.041Z,18.92
2022-12-11T07:18:52.192Z,19.17
2022-12-11T07:21:21.932Z,21.65
2022-12-11T07:23:51.273Z,26.38
2022-12-11T07:26:22.886Z,24.70
2022-12-11T07:28:51.596Z,22.25
2022-12-11T07:31:22.952Z,28.80
2022-12-11T07:33:56.472Z,25.15
2022-12-11T07:36:26.138Z,28.20
2022-12-11T07:38:54.628Z,21.70
2022-12-11T07:41:24.092Z,22.02
2022-12-11T07:43:55.813Z,18.85
2022-12-11T07:46:27.120Z,19.15
2022-12-11T07:48:56.786Z,17.92
2022-12-11T07:51:27.912Z,20.60
2022-12-11T07:53:58.770Z,18.45
2022-12-11T07:56:28.586Z,19.20
2022-12-11T07:58:57.387Z,18.83
2022-12-11T08:01:28.115Z,20.27
2022-12-11T08:03:58.317Z,22.73
2022-12-11T08:06:29.534Z,22.35
2022-12-11T08:08:59.937Z,19.92
2022-12-11T08:11:29.823Z,23.17
2022-12-11T08:14:00.162Z,22.58
2022-12-11T08:16:29.384Z,18.63
2022-12-11T08:19:00.007Z,17.20
2022-12-11T08:21:30.029Z,17.40
2022-12-11T08:23:58.871Z,18.55
2022-12-11T08:26:31.337Z,15.75
2022-12-11T08:29:01.416Z,15.50
2022-12-11T08:31:30.538Z,16.67
2022-12-11T08:34:00.335Z,15.98
2022-12-11T08:36:29.306Z,18.35
2022-12-11T08:38:58.125Z,19.75
2022-12-11T08:41:28.144Z,21.67
2022-12-11T08:43:57.596Z,20.30
2022-12-11T08:46:28.406Z,20.17
2022-12-11T08:48:57.767Z,17.98
2022-12-11T08:51:29.807Z,20.73
2022-12-11T08:54:02.254Z,17.02
2022-12-11T08:56:31.399Z,15.93
2022-12-11T08:59:02.073Z,19.88
2022-12-11T09:01:30.798Z,16.13
2022-12-11T09:03:59.364Z,15.52
2022-12-11T09:06:30.884Z,19.27
2022-12-11T09:09:01.829Z,18.60
2022-12-11T09:11:33.035Z,20.33
2022-12-11T09:14:07.161Z,18.70
2022-12-11T09:16:40.172Z,18.10
2022-12-11T09:19:11.818Z,18.17
2022-12-11T09:21:43.059Z,18.73
2022-12-11T09:24:13.943Z,21.50
2022-12-11T09:26:43.084Z,20.77
2022-12-11T09:29:13.176Z,20.75
2022-12-11T09:31:41.556Z,22.33
2022-12-11T09:34:13.203Z,17.70
2022-12-11T09:36:44.090Z,17.65
2022-12-11T09:39:14.609Z,20.38
2022-12-11T09:41:53.007Z,21.65
2022-12-11T09:44:32.433Z,23.15
2022-12-11T09:47:01.609Z,21.48
2022-12-11T09:49:36.713Z,23.00
2022-12-11T09:52:16.492Z,22.15
2022-12-11T09:54:51.741Z,23.25
2022-12-11T09:57:41.568Z,21.88
2022-12-11T10:00:23.452Z,21.33
2022-12-11T10:03:28.440Z,22.38
2022-12-11T10:06:05.075Z,22.92
2022-12-11T10:08:44.355Z,21.48
2022-12-11T10:11:39.956Z,23.40
2022-12-11T10:14:17.223Z,22.13
2022-12-11T10:16:49.873Z,23.65
2022-12-11T10:19:25.603Z,26.35
2022-12-11T10:21:55.743Z,21.95
2022-12-11T10:25:09.405Z,19.00
2022-12-11T10:27:31.315Z,21.65
2022-12-11T10:30:09.776Z,20.10
2022-12-11T10:32:45.656Z,23.48
2022-12-11T10:35:26.995Z,22.45
2022-12-11T10:37:59.074Z,21.15
2022-12-11T10:40:32.229Z,22.33
2022-12-11T10:43:00.859Z,20.75
2022-12-11T10:45:29.096Z,21.55
2022-12-11T10:48:10.927Z,19.60
2022-12-11T10:50:39.667Z,21.73
2022-12-11T10:53:20.919Z,24.45
2022-12-11T10:55:51.619Z,21.30
2022-12-11T10:58:23.337Z,19.35
2022-12-11T11:01:07.192Z,20.38
2022-12-11T11:03:40.106Z,20.23
2022-12-11T11:06:17.831Z,21.98
2022-12-11T11:08:49.326Z,21.02
2022-12-11T11:11:29.143Z,21.67
2022-12-11T11:14:16.965Z,23.85
2022-12-11T11:16:47.844Z,27.02
2022-12-11T11:19:24.272Z,23.00
2022-12-11T11:21:57.271Z,24.38
2022-12-11T11:24:37.597Z,21.52
2022-12-11T11:27:20.652Z,22.00
2022-12-11T11:29:53.073Z,20.98
2022-12-11T11:32:26.112Z,24.75
2022-12-11T11:34:54.716Z,23.23
2022-12-11T11:37:31.262Z,21.63
2022-12-11T11:40:06.861Z,24.45
2022-12-11T11:42:48.300Z,19.52
2022-12-11T11:45:23.408Z,22.63
2022-12-11T11:48:09.422Z,18.65
2022-12-11T11:50:43.091Z,21.35
2022-12-11T11:53:19.224Z,21.60
2022-12-11T11:55:58.595Z,24.48
2022-12-11T11:58:38.965Z,25.45
2022-12-11T12:01:15.670Z,20.77
2022-12-11T12:03:44.667Z,22.13
2022-12-11T12:06:21.279Z,23.35
2022-12-11T12:08:59.426Z,21.40
2022-12-11T12:11:39.312Z,23.60
2022-12-11T12:14:50.572Z,20.80
2022-12-11T12:17:20.427Z,18.52
2022-12-11T12:19:58.852Z,21.30
2022-12-11T12:22:48.128Z,19.38
2022-12-11T12:25:25.500Z,22.85
2022-12-11T12:28:05.832Z,21.42
2022-12-11T12:30:48.691Z,20.42
2022-12-11T12:33:32.115Z,22.85
2022-12-11T12:36:12.067Z,19.67
2022-12-11T12:38:52.989Z,22.67
2022-12-11T12:41:27.445Z,26.20
2022-12-11T12:46:57.041Z,20.52
2022-12-11T12:49:36.075Z,22.08
2022-12-11T12:52:07.215Z,20.95
2022-12-11T12:54:37.172Z,21.92
2022-12-11T12:57:06.484Z,20.48
2022-12-11T12:59:35.018Z,19.10
2022-12-11T13:02:06.712Z,21.45
2022-12-11T13:04:58.180Z,20.52
2022-12-11T13:07:31.096Z,21.50
2022-12-11T13:10:08.176Z,20.42
2022-12-11T13:12:44.998Z,18.85
2022-12-11T13:15:33.529Z,20.17
2022-12-11T13:18:05.704Z,21.15
2022-12-11T13:20:47.227Z,20.60
2022-12-11T13:23:29.912Z,21.52
2022-12-11T13:26:01.468Z,20.85
2022-12-11T13:28:34.250Z,18.80
2022-12-11T13:31:24.245Z,18.65
2022-12-11T13:33:58.128Z,19.60
2022-12-11T13:36:33.786Z,21.25
2022-12-11T13:39:06.530Z,19.95
2022-12-11T13:41:38.508Z,20.17
2022-12-11T13:44:08.975Z,19.27
2022-12-11T13:46:40.372Z,21.20
2022-12-11T13:49:23.120Z,21.98
2022-12-11T13:52:00.220Z,23.33
2022-12-11T13:54:30.644Z,20.25
2022-12-11T13:57:03.202Z,20.83
2022-12-11T13:59:35.638Z,20.00
2022-12-11T14:02:16.722Z,20.35
2022-12-11T14:04:48.706Z,19.92
2022-12-11T14:07:23.567Z,20.58
2022-12-11T14:09:52.660Z,20.15
2022-12-11T14:12:22.762Z,20.77
2022-12-11T14:14:54.828Z,21.63
2022-12-11T14:17:26.978Z,19.92
2022-12-11T14:20:02.938Z,19.38
2022-12-11T14:22:31.759Z,18.23
2022-12-11T14:25:03.774Z,19.98
2022-12-11T14:27:32.115Z,19.77
2022-12-11T14:30:13.339Z,20.83
2022-12-11T14:32:45.774Z,21.10
2022-12-11T14:35:26.457Z,22.05
2022-12-11T14:37:56.523Z,20.30
2022-12-11T14:40:29.677Z,18.35
2022-12-11T14:43:03.809Z,19.92
2022-12-11T14:45:35.880Z,18.90
2022-12-11T14:48:11.200Z,23.35
2022-12-11T14:50:47.375Z,23.50
2022-12-11T14:53:20.246Z,21.25
2022-12-11T14:55:51.212Z,20.75
2022-12-11T14:58:23.419Z,18.95
2022-12-11T15:01:03.204Z,19.90
2022-12-11T15:03:37.362Z,21.42
2022-12-11T15:06:26.475Z,20.90
2022-12-11T15:08:54.920Z,18.90
2022-12-11T15:11:26.059Z,18.85
2022-12-11T15:13:57.339Z,18.38
2022-12-11T15:16:29.086Z,18.77
2022-12-11T15:18:58.775Z,19.90
2022-12-11T15:21:33.172Z,17.85
2022-12-11T15:26:38.207Z,16.85
2022-12-11T15:29:25.081Z,17.52
2022-12-11T15:32:01.595Z,17.17
2022-12-11T15:34:35.115Z,19.25
2022-12-11T15:37:05.326Z,19.77
2022-12-11T15:39:33.853Z,19.17
2022-12-11T15:42:02.902Z,18.90
2022-12-11T15:44:31.482Z,18.35
2022-12-11T15:47:00.103Z,19.98
2022-12-11T15:49:28.532Z,19.42
2022-12-11T15:51:56.793Z,18.38
2022-12-11T15:54:26.371Z,18.33
2022-12-11T15:56:54.835Z,19.40
2022-12-11T15:59:23.628Z,21.35
2022-12-11T16:01:52.180Z,18.83
2022-12-11T16:04:20.781Z,20.10
2022-12-11T16:06:49.039Z,18.70
2022-12-11T16:09:17.546Z,18.98
2022-12-11T16:11:47.247Z,17.73
2022-12-11T16:14:15.467Z,20.45
2022-12-11T16:16:43.996Z,18.02
2022-12-11T16:19:12.531Z,16.77
2022-12-11T16:21:40.820Z,17.40
2022-12-11T16:24:09.117Z,17.70
2022-12-11T16:26:37.658Z,16.15
2022-12-11T16:29:07.433Z,17.38
2022-12-11T16:31:35.942Z,17.88
2022-12-11T16:34:04.184Z,18.00
2022-12-11T16:36:32.500Z,16.27
2022-12-11T16:39:01.459Z,20.50
2022-12-11T16:41:30.027Z,18.02
2022-12-11T16:43:58.577Z,18.10
2022-12-11T16:46:28.298Z,17.63
2022-12-11T16:48:56.998Z,16.92
2022-12-11T16:51:25.471Z,16.65
2022-12-11T16:53:54.033Z,18.88
2022-12-11T16:56:22.305Z,19.40
2022-12-11T16:58:50.914Z,16.38
2022-12-11T17:01:19.494Z,20.45
2022-12-11T17:03:49.322Z,18.48
2022-12-11T17:06:19.022Z,18.50
2022-12-11T17:08:48.082Z,17.38
2022-12-11T17:11:19.387Z,20.65
2022-12-11T17:13:48.282Z,18.48
2022-12-11T17:16:17.735Z,17.40
2022-12-11T17:18:47.821Z,15.85
2022-12-11T17:21:18.703Z,18.40
2022-12-11T17:23:47.323Z,16.95
2022-12-11T17:26:16.508Z,16.13
2022-12-11T17:28:45.301Z,19.17
2022-12-11T17:31:17.688Z,19.80
2022-12-11T17:33:48.104Z,19.23
2022-12-11T17:36:19.351Z,21.05
2022-12-11T17:38:48.293Z,21.05
2022-12-11T17:41:20.641Z,19.88
2022-12-11T17:43:50.273Z,20.70
2022-12-11T17:46:19.695Z,17.58
2022-12-11T17:48:50.466Z,18.83
2022-12-11T17:51:23.891Z,18.75
2022-12-11T17:56:22.124Z,15.55
2022-12-11T17:58:51.039Z,16.15
2022-12-11T18:01:20.322Z,18.90
2022-12-11T18:03:49.955Z,16.35
2022-12-11T18:06:18.778Z,19.73
2022-12-11T18:08:48.103Z,17.42
2022-12-11T18:11:18.663Z,19.00
2022-12-11T18:13:48.543Z,19.40
2022-12-11T18:16:19.238Z,19.35
2022-12-11T18:18:50.319Z,19.02
2022-12-11T18:21:22.554Z,18.38
2022-12-11T18:23:52.339Z,20.83
2022-12-11T18:26:21.821Z,23.48
2022-12-11T18:28:51.827Z,21.02
2022-12-11T18:31:21.728Z,20.63
2022-12-11T18:33:51.864Z,21.13
2022-12-11T18:36:22.404Z,21.70
2022-12-11T18:38:51.118Z,20.67
2022-12-11T18:41:21.063Z,29.13
2022-12-11T18:43:49.410Z,23.73
2022-12-11T18:46:21.527Z,16.52
2022-12-11T18:48:51.619Z,18.10
2022-12-11T18:51:23.860Z,19.42
2022-12-11T18:53:52.845Z,21.70
2022-12-11T18:56:22.300Z,24.15
2022-12-11T18:58:52.417Z,22.25
2022-12-11T19:01:24.304Z,23.30
2022-12-11T19:04:02.712Z,21.50
2022-12-11T19:06:35.375Z,20.02
2022-12-11T19:09:04.994Z,19.92
2022-12-11T19:11:34.937Z,20.50
2022-12-11T19:14:05.147Z,20.98
2022-12-11T19:16:36.317Z,22.13
2022-12-11T19:19:10.767Z,23.40
2022-12-11T19:24:09.402Z,23.40
2022-12-11T19:26:38.309Z,22.88
2022-12-11T19:29:06.840Z,21.25
2022-12-11T19:31:35.685Z,19.25
2022-12-11T19:34:05.737Z,24.27
2022-12-11T19:36:36.581Z,21.05
2022-12-11T19:39:11.306Z,20.27
2022-12-11T19:41:41.681Z,22.80
2022-12-11T19:44:10.633Z,23.92
2022-12-11T19:46:39.719Z,21.17
2022-12-11T19:49:09.545Z,19.67
2022-12-11T19:51:40.823Z,19.83
2022-12-11T19:54:13.579Z,19.70
2022-12-11T19:56:42.378Z,18.75
2022-12-11T19:59:15.604Z,19.02
2022-12-11T20:01:46.846Z,17.85
2022-12-11T20:04:17.818Z,18.52
2022-12-11T20:06:48.074Z,16.23
2022-12-11T20:09:16.824Z,17.50
2022-12-11T20:11:47.295Z,18.90
2022-12-11T20:14:22.093Z,18.90
2022-12-11T20:17:13.545Z,18.63
2022-12-11T20:19:41.356Z,20.50
2022-12-11T20:22:10.173Z,19.10
2022-12-11T20:24:39.311Z,16.15
2022-12-11T20:27:08.819Z,20.60
2022-12-11T20:29:38.788Z,19.45
2022-12-11T20:32:07.458Z,19.40
2022-12-11T20:34:36.207Z,20.40
2022-12-11T20:37:05.783Z,21.27
2022-12-11T20:39:34.324Z,20.58
2022-12-11T20:42:04.791Z,21.67
2022-12-11T20:44:33.554Z,24.75
2022-12-11T20:47:02.151Z,23.77
2022-12-11T20:49:30.710Z,19.55
2022-12-11T20:51:59.474Z,20.27
2022-12-11T20:54:29.148Z,21.05
2022-12-11T20:56:57.924Z,20.63
2022-12-11T20:59:27.064Z,19.73
2022-12-11T21:01:55.811Z,19.38
2022-12-11T21:04:25.082Z,17.83
2022-12-11T21:06:56.151Z,18.52
2022-12-11T21:09:26.630Z,19.02
2022-12-11T21:11:58.580Z,20.17
2022-12-11T21:14:27.280Z,17.23
2022-12-11T21:16:56.258Z,19.60
2022-12-11T21:19:24.809Z,17.55
2022-12-11T21:21:53.278Z,18.27
2022-12-11T21:24:23.783Z,16.98
2022-12-11T21:26:52.316Z,18.77
2022-12-11T21:29:22.272Z,17.75
2022-12-11T21:31:51.213Z,15.60
2022-12-11T21:34:25.057Z,18.40
2022-12-11T21:39:25.850Z,16.73
2022-12-11T21:41:55.049Z,22.73
2022-12-11T21:47:13.332Z,17.95
2022-12-11T21:49:43.003Z,18.25
2022-12-11T21:52:13.210Z,24.50
2022-12-11T21:54:42.592Z,24.20
2022-12-11T21:57:11.136Z,25.00
2022-12-11T21:59:40.721Z,20.45
2022-12-11T22:02:12.083Z,19.48
2022-12-11T22:04:42.025Z,20.73
2022-12-11T22:07:11.290Z,19.85
2022-12-11T22:09:39.802Z,23.15
2022-12-11T22:12:08.610Z,16.48
2022-12-11T22:14:37.164Z,19.80
2022-12-11T22:17:06.760Z,20.85
2022-12-11T22:19:35.035Z,19.45
2022-12-11T22:22:03.736Z,22.42
2022-12-11T22:24:32.172Z,21.85
2022-12-11T22:27:01.331Z,20.00
2022-12-11T22:29:29.855Z,17.33
2022-12-11T22:31:58.474Z,20.15
2022-12-11T22:34:28.139Z,19.88
2022-12-11T22:36:57.253Z,20.05
2022-12-11T22:39:25.747Z,24.60
2022-12-11T22:41:54.475Z,19.83
2022-12-11T22:44:23.168Z,24.73
2022-12-11T22:46:51.871Z,25.17
2022-12-11T22:49:20.828Z,26.70
2022-12-11T22:51:50.433Z,25.50
2022-12-11T22:54:19.077Z,24.52
2022-12-11T22:56:47.405Z,30.42
2022-12-11T22:59:16.028Z,25.05
2022-12-11T23:01:44.563Z,28.25
2022-12-11T23:04:13.087Z,30.02
2022-12-11T23:06:41.723Z,23.27
2022-12-11T23:09:12.557Z,32.55
2022-12-11T23:11:41.789Z,28.63
2022-12-11T23:14:15.947Z,22.75
2022-12-11T23:16:44.899Z,32.85
2022-12-11T23:19:14.030Z,19.95
2022-12-11T23:21:43.825Z,27.27
2022-12-11T23:24:14.404Z,22.08
2022-12-11T23:26:42.847Z,20.25
2022-12-11T23:29:11.559Z,30.23
2022-12-11T23:31:40.198Z,22.95
2022-12-11T23:34:08.737Z,22.85
2022-12-11T23:36:37.306Z,21.58
2022-12-11T23:39:06.407Z,19.77
2022-12-11T23:41:36.283Z,20.30
2022-12-11T23:44:05.160Z,20.55
2022-12-11T23:46:34.415Z,20.63
2022-12-11T23:49:03.262Z,20.85
2022-12-11T23:51:31.819Z,20.95
2022-12-11T23:54:00.351Z,19.85
2022-12-11T23:56:30.780Z,19.25
2022-12-11T23:59:00.600Z,20.23
